sensor_id;sensor_type;location;lat;lon;timestamp;pressure;altitude;pressure_sealevel;temperature;humidity
18504;BME280;9381;54.244;10.074;2022-10-23T00:02:26;100971.78;;;13.79;100.00
18504;BME280;9381;54.244;10.074;2022-10-23T00:07:26;100976.41;;;13.79;100.00
18504;BME280;9381;54.244;10.074;2022-10-23T00:12:27;100980.75;;;13.68;100.00
18504;BME280;9381;54.244;10.074;2022-10-23T00:17:27;100987.84;;;13.69;100.00
18504;BME280;9381;54.244;10.074;2022-10-23T00:22:27;100995.56;;;13.54;100.00
18504;BME280;9381;54.244;10.074;2022-10-23T00:27:28;100994.66;;;13.60;100.00
18504;BME280;9381;54.244;10.074;2022-10-23T00:32:28;101003.13;;;13.52;100.00
18504;BME280;9381;54.244;10.074;2022-10-23T00:37:28;101006.59;;;13.41;100.00
18504;BME280;9381;54.244;10.074;2022-10-23T00:42:28;101001.56;;;13.45;100.00
18504;BME280;9381;54.244;10.074;2022-10-23T00:47:29;101010.53;;;13.27;100.00
18504;BME280;9381;54.244;10.074;2022-10-23T00:52:29;101006.31;;;13.31;100.00
18504;BME280;9381;54.244;10.074;2022-10-23T00:57:30;101015.22;;;13.20;100.00
18504;BME280;9381;54.244;10.074;2022-10-23T01:02:30;101009.41;;;12.99;100.00
18504;BME280;9381;54.244;10.074;2022-10-23T01:08:01;101016.97;;;13.15;100.00
18504;BME280;9381;54.244;10.074;2022-10-23T01:13:11;101015.22;;;13.02;100.00
18504;BME280;9381;54.244;10.074;2022-10-23T01:18:20;101012.50;;;13.02;100.00
18504;BME280;9381;54.244;10.074;2022-10-23T01:29:04;101001.75;;;12.89;100.00
18504;BME280;9381;54.244;10.074;2022-10-23T01:34:19;101016.59;;;12.87;100.00
18504;BME280;9381;54.244;10.074;2022-10-23T01:39:25;101009.28;;;12.87;100.00
18504;BME280;9381;54.244;10.074;2022-10-23T01:44:43;101007.97;;;12.96;100.00
18504;BME280;9381;54.244;10.074;2022-10-23T01:49:47;100999.81;;;12.96;100.00
18504;BME280;9381;54.244;10.074;2022-10-23T01:54:50;101002.81;;;12.88;100.00
18504;BME280;9381;54.244;10.074;2022-10-23T01:59:55;100993.97;;;12.75;100.00
18504;BME280;9381;54.244;10.074;2022-10-23T02:05:28;100998.13;;;12.77;100.00
18504;BME280;9381;54.244;10.074;2022-10-23T02:10:52;100997.94;;;12.72;100.00
18504;BME280;9381;54.244;10.074;2022-10-23T02:16:04;101000.31;;;12.69;100.00
18504;BME280;9381;54.244;10.074;2022-10-23T02:21:13;100998.25;;;12.64;100.00
18504;BME280;9381;54.244;10.074;2022-10-23T02:26:22;100991.16;;;12.63;100.00
18504;BME280;9381;54.244;10.074;2022-10-23T02:31:24;100987.41;;;12.64;100.00
18504;BME280;9381;54.244;10.074;2022-10-23T02:36:24;100988.50;;;12.57;100.00
18504;BME280;9381;54.244;10.074;2022-10-23T02:41:34;100991.81;;;12.59;100.00
18504;BME280;9381;54.244;10.074;2022-10-23T02:52:08;100992.38;;;12.67;100.00
18504;BME280;9381;54.244;10.074;2022-10-23T02:57:20;100987.47;;;12.76;100.00
18504;BME280;9381;54.244;10.074;2022-10-23T03:02:34;100978.06;;;12.78;100.00
18504;BME280;9381;54.244;10.074;2022-10-23T03:07:38;100988.16;;;12.71;100.00
18504;BME280;9381;54.244;10.074;2022-10-23T03:12:40;100986.50;;;12.70;100.00
18504;BME280;9381;54.244;10.074;2022-10-23T03:17:40;100998.72;;;12.79;100.00
18504;BME280;9381;54.244;10.074;2022-10-23T03:22:41;100998.56;;;12.74;100.00
18504;BME280;9381;54.244;10.074;2022-10-23T03:27:41;101000.63;;;12.79;100.00
18504;BME280;9381;54.244;10.074;2022-10-23T03:32:41;100996.06;;;12.73;100.00
18504;BME280;9381;54.244;10.074;2022-10-23T03:37:42;100991.63;;;12.78;100.00
18504;BME280;9381;54.244;10.074;2022-10-23T03:42:42;100986.41;;;12.77;100.00
18504;BME280;9381;54.244;10.074;2022-10-23T03:47:42;100985.00;;;12.74;100.00
18504;BME280;9381;54.244;10.074;2022-10-23T03:52:44;100986.81;;;12.80;100.00
18504;BME280;9381;54.244;10.074;2022-10-23T03:57:44;100984.22;;;12.67;100.00
18504;BME280;9381;54.244;10.074;2022-10-23T04:02:44;100997.22;;;12.65;100.00
18504;BME280;9381;54.244;10.074;2022-10-23T04:07:45;100994.91;;;12.62;100.00
18504;BME280;9381;54.244;10.074;2022-10-23T04:12:45;100998.38;;;12.51;100.00
18504;BME280;9381;54.244;10.074;2022-10-23T04:17:45;100997.03;;;12.60;100.00
18504;BME280;9381;54.244;10.074;2022-10-23T04:22:46;100996.09;;;12.48;100.00
18504;BME280;9381;54.244;10.074;2022-10-23T04:27:47;100994.59;;;12.52;100.00
18504;BME280;9381;54.244;10.074;2022-10-23T04:32:51;100992.06;;;12.57;100.00
18504;BME280;9381;54.244;10.074;2022-10-23T04:37:51;100995.84;;;12.56;100.00
18504;BME280;9381;54.244;10.074;2022-10-23T04:42:52;100995.50;;;12.46;100.00
18504;BME280;9381;54.244;10.074;2022-10-23T04:47:52;100986.63;;;12.57;100.00
18504;BME280;9381;54.244;10.074;2022-10-23T04:52:53;100976.66;;;12.51;100.00
18504;BME280;9381;54.244;10.074;2022-10-23T04:57:54;100986.63;;;12.57;100.00
18504;BME280;9381;54.244;10.074;2022-10-23T05:02:54;100991.16;;;12.63;100.00
18504;BME280;9381;54.244;10.074;2022-10-23T05:07:54;100991.81;;;12.59;100.00
18504;BME280;9381;54.244;10.074;2022-10-23T05:12:55;100979.56;;;12.56;100.00
18504;BME280;9381;54.244;10.074;2022-10-23T05:17:59;100980.44;;;12.50;100.00
18504;BME280;9381;54.244;10.074;2022-10-23T05:23:05;100971.22;;;12.51;100.00
18504;BME280;9381;54.244;10.074;2022-10-23T05:28:07;100968.69;;;12.56;100.00
18504;BME280;9381;54.244;10.074;2022-10-23T05:33:09;100970.50;;;12.62;100.00
18504;BME280;9381;54.244;10.074;2022-10-23T05:38:10;100969.91;;;12.60;100.00
18504;BME280;9381;54.244;10.074;2022-10-23T05:43:12;100966.59;;;12.58;100.00
18504;BME280;9381;54.244;10.074;2022-10-23T05:48:15;100966.41;;;12.53;100.00
18504;BME280;9381;54.244;10.074;2022-10-23T05:53:16;100974.53;;;12.53;100.00
18504;BME280;9381;54.244;10.074;2022-10-23T05:58:16;100978.31;;;12.52;100.00
18504;BME280;9381;54.244;10.074;2022-10-23T06:03:17;100970.03;;;12.47;100.00
18504;BME280;9381;54.244;10.074;2022-10-23T06:08:17;100973.16;;;12.44;100.00
18504;BME280;9381;54.244;10.074;2022-10-23T06:13:18;100972.13;;;12.45;100.00
18504;BME280;9381;54.244;10.074;2022-10-23T06:18:18;100970.63;;;12.49;100.00
18504;BME280;9381;54.244;10.074;2022-10-23T06:23:18;100968.91;;;12.55;100.00
18504;BME280;9381;54.244;10.074;2022-10-23T06:28:18;100978.69;;;12.56;100.00
18504;BME280;9381;54.244;10.074;2022-10-23T06:33:19;100980.69;;;12.67;100.00
18504;BME280;9381;54.244;10.074;2022-10-23T06:38:19;100986.50;;;12.70;100.00
18504;BME280;9381;54.244;10.074;2022-10-23T06:43:20;100989.44;;;12.69;100.00
18504;BME280;9381;54.244;10.074;2022-10-23T06:48:20;100991.50;;;12.73;100.00
18504;BME280;9381;54.244;10.074;2022-10-23T06:53:21;100994.81;;;12.75;100.00
18504;BME280;9381;54.244;10.074;2022-10-23T06:58:23;101001.44;;;12.79;100.00
18504;BME280;9381;54.244;10.074;2022-10-23T07:03:25;100993.88;;;12.81;100.00
18504;BME280;9381;54.244;10.074;2022-10-23T07:08:25;100992.41;;;12.85;100.00
18504;BME280;9381;54.244;10.074;2022-10-23T07:13:25;100984.81;;;12.94;100.00
18504;BME280;9381;54.244;10.074;2022-10-23T07:18:26;100991.09;;;12.94;100.00
18504;BME280;9381;54.244;10.074;2022-10-23T07:23:26;100986.25;;;12.96;100.00
18504;BME280;9381;54.244;10.074;2022-10-23T07:28:27;100981.00;;;13.01;100.00
18504;BME280;9381;54.244;10.074;2022-10-23T07:33:27;100983.31;;;12.98;100.00
18504;BME280;9381;54.244;10.074;2022-10-23T07:38:27;101000.97;;;13.07;100.00
18504;BME280;9381;54.244;10.074;2022-10-23T07:43:28;100995.97;;;13.22;100.00
18504;BME280;9381;54.244;10.074;2022-10-23T07:48:29;100990.47;;;13.28;100.00
18504;BME280;9381;54.244;10.074;2022-10-23T07:53:29;100979.97;;;13.32;100.00
18504;BME280;9381;54.244;10.074;2022-10-23T07:58:29;100966.31;;;13.38;100.00
18504;BME280;9381;54.244;10.074;2022-10-23T08:03:31;100978.34;;;13.60;100.00
18504;BME280;9381;54.244;10.074;2022-10-23T08:08:32;100988.16;;;13.61;100.00
18504;BME280;9381;54.244;10.074;2022-10-23T08:13:32;100997.16;;;13.62;100.00
18504;BME280;9381;54.244;10.074;2022-10-23T08:18:33;100984.53;;;13.67;100.00
18504;BME280;9381;54.244;10.074;2022-10-23T08:23:33;100980.75;;;13.68;100.00
18504;BME280;9381;54.244;10.074;2022-10-23T08:28:34;100981.50;;;13.75;100.00
18504;BME280;9381;54.244;10.074;2022-10-23T08:33:34;100971.06;;;13.72;100.00
18504;BME280;9381;54.244;10.074;2022-10-23T08:38:35;100974.72;;;13.78;100.00
18504;BME280;9381;54.244;10.074;2022-10-23T08:43:43;100982.19;;;13.82;100.00
18504;BME280;9381;54.244;10.074;2022-10-23T08:49:02;100975.38;;;13.91;100.00
18504;BME280;9381;54.244;10.074;2022-10-23T08:54:21;100990.03;;;14.20;100.00
18504;BME280;9381;54.244;10.074;2022-10-23T08:59:44;100983.41;;;14.27;100.00
18504;BME280;9381;54.244;10.074;2022-10-23T09:04:47;100986.25;;;14.32;100.00
18504;BME280;9381;54.244;10.074;2022-10-23T09:20:20;100982.03;;;14.59;100.00
18504;BME280;9381;54.244;10.074;2022-10-23T09:25:30;100978.94;;;14.67;100.00
18504;BME280;9381;54.244;10.074;2022-10-23T09:30:38;100974.53;;;14.89;100.00
18504;BME280;9381;54.244;10.074;2022-10-23T09:35:57;100969.75;;;15.19;100.00
18504;BME280;9381;54.244;10.074;2022-10-23T09:41:18;100964.16;;;15.37;100.00
18504;BME280;9381;54.244;10.074;2022-10-23T09:46:19;100954.84;;;15.61;100.00
18504;BME280;9381;54.244;10.074;2022-10-23T09:51:20;100964.91;;;15.60;100.00
18504;BME280;9381;54.244;10.074;2022-10-23T09:56:30;100961.53;;;15.53;100.00
18504;BME280;9381;54.244;10.074;2022-10-23T10:01:34;100957.88;;;15.48;100.00
18504;BME280;9381;54.244;10.074;2022-10-23T10:06:35;100967.00;;;15.42;100.00
18504;BME280;9381;54.244;10.074;2022-10-23T10:11:39;100964.16;;;15.37;100.00
18504;BME280;9381;54.244;10.074;2022-10-23T10:22:38;100958.19;;;15.51;100.00
18504;BME280;9381;54.244;10.074;2022-10-23T10:27:51;100955.72;;;15.78;100.00
18504;BME280;9381;54.244;10.074;2022-10-23T10:33:08;100948.03;;;15.91;100.00
18504;BME280;9381;54.244;10.074;2022-10-23T10:43:42;100923.59;;;16.46;100.00
18504;BME280;9381;54.244;10.074;2022-10-23T10:49:15;100908.16;;;16.73;100.00
18504;BME280;9381;54.244;10.074;2022-10-23T10:54:50;100914.47;;;16.73;100.00
18504;BME280;9381;54.244;10.074;2022-10-23T10:59:56;100906.41;;;17.05;100.00
18504;BME280;9381;54.244;10.074;2022-10-23T11:05:08;100888.03;;;16.79;100.00
18504;BME280;9381;54.244;10.074;2022-10-23T11:10:17;100881.38;;;17.13;100.00
18504;BME280;9381;54.244;10.074;2022-10-23T11:15:22;100865.19;;;17.33;100.00
18504;BME280;9381;54.244;10.074;2022-10-23T11:31:19;100855.66;;;17.62;100.00
18504;BME280;9381;54.244;10.074;2022-10-23T11:36:45;100837.22;;;17.52;100.00
18504;BME280;9381;54.244;10.074;2022-10-23T11:41:54;100832.59;;;17.53;100.00
18504;BME280;9381;54.244;10.074;2022-10-23T11:47:04;100827.03;;;17.43;100.00
18504;BME280;9381;54.244;10.074;2022-10-23T11:52:04;100834.78;;;17.51;100.00
18504;BME280;9381;54.244;10.074;2022-10-23T11:57:13;100807.22;;;17.57;100.00
18504;BME280;9381;54.244;10.074;2022-10-23T12:02:32;100797.28;;;17.78;100.00
18504;BME280;9381;54.244;10.074;2022-10-23T12:07:36;100792.31;;;17.75;100.00
18504;BME280;9381;54.244;10.074;2022-10-23T12:12:37;100778.03;;;17.68;100.00
18504;BME280;9381;54.244;10.074;2022-10-23T12:17:42;100768.34;;;17.91;100.00
18504;BME280;9381;54.244;10.074;2022-10-23T12:33:56;100769.41;;;18.27;100.00
18504;BME280;9381;54.244;10.074;2022-10-23T12:39:00;100751.91;;;18.28;100.00
18504;BME280;9381;54.244;10.074;2022-10-23T12:44:03;100745.09;;;18.30;100.00
18504;BME280;9381;54.244;10.074;2022-10-23T12:49:16;100738.28;;;18.38;100.00
18504;BME280;9381;54.244;10.074;2022-10-23T12:54:19;100730.38;;;18.46;100.00
18504;BME280;9381;54.244;10.074;2022-10-23T12:59:23;100721.03;;;18.47;100.00
18504;BME280;9381;54.244;10.074;2022-10-23T13:04:29;100709.56;;;18.50;100.00
18504;BME280;9381;54.244;10.074;2022-10-23T13:09:33;100692.03;;;18.46;100.00
18504;BME280;9381;54.244;10.074;2022-10-23T13:14:40;100681.63;;;18.43;100.00
18504;BME280;9381;54.244;10.074;2022-10-23T13:19:41;100679.31;;;18.25;100.00
18504;BME280;9381;54.244;10.074;2022-10-23T13:24:41;100656.84;;;18.18;100.00
18504;BME280;9381;54.244;10.074;2022-10-23T13:29:42;100644.25;;;18.12;100.00
18504;BME280;9381;54.244;10.074;2022-10-23T13:34:50;100634.28;;;17.91;100.00
18504;BME280;9381;54.244;10.074;2022-10-23T13:40:04;100638.09;;;17.86;100.00
18504;BME280;9381;54.244;10.074;2022-10-23T13:45:15;100623.53;;;17.75;100.00
18504;BME280;9381;54.244;10.074;2022-10-23T13:50:17;100612.78;;;17.59;100.00
18504;BME280;9381;54.244;10.074;2022-10-23T13:55:22;100598.03;;;17.65;100.00
18504;BME280;9381;54.244;10.074;2022-10-23T14:00:23;100585.94;;;17.56;100.00
18504;BME280;9381;54.244;10.074;2022-10-23T14:05:24;100593.25;;;17.40;100.00
18504;BME280;9381;54.244;10.074;2022-10-23T14:10:24;100580.81;;;17.28;100.00
18504;BME280;9381;54.244;10.074;2022-10-23T14:15:24;100585.97;;;17.19;100.00
18504;BME280;9381;54.244;10.074;2022-10-23T14:20:25;100574.13;;;17.09;100.00
18504;BME280;9381;54.244;10.074;2022-10-23T14:25:25;100569.75;;;17.03;100.00
18504;BME280;9381;54.244;10.074;2022-10-23T14:30:26;100566.03;;;16.87;100.00
18504;BME280;9381;54.244;10.074;2022-10-23T14:35:26;100567.09;;;16.81;100.00
18504;BME280;9381;54.244;10.074;2022-10-23T14:40:26;100556.19;;;16.81;100.00
18504;BME280;9381;54.244;10.074;2022-10-23T14:45:27;100560.72;;;16.71;100.00
18504;BME280;9381;54.244;10.074;2022-10-23T14:50:34;100549.19;;;16.64;100.00
18504;BME280;9381;54.244;10.074;2022-10-23T14:55:35;100527.34;;;16.64;100.00
18504;BME280;9381;54.244;10.074;2022-10-23T15:00:35;100516.34;;;16.54;100.00
18504;BME280;9381;54.244;10.074;2022-10-23T15:05:40;100500.75;;;16.49;100.00
18504;BME280;9381;54.244;10.074;2022-10-23T15:10:41;100504.63;;;16.53;100.00
18504;BME280;9381;54.244;10.074;2022-10-23T15:15:42;100508.50;;;16.36;100.00
18504;BME280;9381;54.244;10.074;2022-10-23T15:20:50;100516.66;;;16.31;100.00
18504;BME280;9381;54.244;10.074;2022-10-23T15:25:58;100513.66;;;16.32;100.00
18504;BME280;9381;54.244;10.074;2022-10-23T15:30:58;100500.22;;;16.26;100.00
18504;BME280;9381;54.244;10.074;2022-10-23T15:35:59;100483.28;;;16.24;100.00
18504;BME280;9381;54.244;10.074;2022-10-23T15:41:12;100495.50;;;16.16;100.00
18504;BME280;9381;54.244;10.074;2022-10-23T15:46:13;100487.00;;;16.13;100.00
18504;BME280;9381;54.244;10.074;2022-10-23T15:51:14;100496.16;;;16.02;100.00
18504;BME280;9381;54.244;10.074;2022-10-23T15:56:14;100493.41;;;15.97;100.00
18504;BME280;9381;54.244;10.074;2022-10-23T16:01:14;100498.84;;;15.97;100.00
18504;BME280;9381;54.244;10.074;2022-10-23T16:06:16;100501.50;;;15.92;100.00
18504;BME280;9381;54.244;10.074;2022-10-23T16:11:19;100490.59;;;15.92;100.00
18504;BME280;9381;54.244;10.074;2022-10-23T16:16:20;100480.19;;;15.84;100.00
18504;BME280;9381;54.244;10.074;2022-10-23T16:21:27;100444.72;;;15.84;100.00
18504;BME280;9381;54.244;10.074;2022-10-23T16:26:28;100438.69;;;15.82;100.00
18504;BME280;9381;54.244;10.074;2022-10-23T16:31:29;100430.47;;;15.77;100.00
18504;BME280;9381;54.244;10.074;2022-10-23T16:36:29;100410.44;;;15.66;100.00
18504;BME280;9381;54.244;10.074;2022-10-23T16:41:30;100398.19;;;15.69;100.00
18504;BME280;9381;54.244;10.074;2022-10-23T16:46:31;100383.25;;;15.71;100.00
18504;BME280;9381;54.244;10.074;2022-10-23T16:51:31;100384.56;;;15.69;100.00
18504;BME280;9381;54.244;10.074;2022-10-23T16:56:32;100366.59;;;15.73;100.00
18504;BME280;9381;54.244;10.074;2022-10-23T17:01:32;100378.56;;;15.67;100.00
18504;BME280;9381;54.244;10.074;2022-10-23T17:06:33;100394.59;;;15.63;100.00
18504;BME280;9381;54.244;10.074;2022-10-23T17:11:36;100388.41;;;15.73;100.00
18504;BME280;9381;54.244;10.074;2022-10-23T17:16:42;100387.50;;;15.62;100.00
18504;BME280;9381;54.244;10.074;2022-10-23T17:21:43;100383.56;;;15.75;100.00
18504;BME280;9381;54.244;10.074;2022-10-23T17:26:44;100373.69;;;15.74;100.00
18504;BME280;9381;54.244;10.074;2022-10-23T17:31:47;100360.06;;;15.74;100.00
18504;BME280;9381;54.244;10.074;2022-10-23T17:36:51;100369.28;;;15.68;100.00
18504;BME280;9381;54.244;10.074;2022-10-23T17:41:52;100366.03;;;15.71;100.00
18504;BME280;9381;54.244;10.074;2022-10-23T17:46:53;100363.56;;;15.69;100.00
18504;BME280;9381;54.244;10.074;2022-10-23T17:51:55;100357.25;;;15.64;100.00
18504;BME280;9381;54.244;10.074;2022-10-23T17:56:56;100336.81;;;15.66;100.00
18504;BME280;9381;54.244;10.074;2022-10-23T18:01:56;100329.47;;;15.67;100.00
18504;BME280;9381;54.244;10.074;2022-10-23T18:06:58;100323.97;;;15.62;100.00
18504;BME280;9381;54.244;10.074;2022-10-23T18:11:59;100304.88;;;15.57;100.00
18504;BME280;9381;54.244;10.074;2022-10-23T18:16:59;100291.22;;;15.57;100.00
18504;BME280;9381;54.244;10.074;2022-10-23T18:21:59;100277.53;;;15.52;100.00
18504;BME280;9381;54.244;10.074;2022-10-23T18:27:00;100274.81;;;15.52;100.00
18504;BME280;9381;54.244;10.074;2022-10-23T18:32:00;100296.72;;;15.62;100.00
18504;BME280;9381;54.244;10.074;2022-10-23T18:37:01;100282.56;;;15.65;100.00
18504;BME280;9381;54.244;10.074;2022-10-23T18:42:01;100285.78;;;15.57;100.00
18504;BME280;9381;54.244;10.074;2022-10-23T18:47:01;100280.03;;;15.53;100.00
18504;BME280;9381;54.244;10.074;2022-10-23T18:52:02;100277.84;;;15.55;100.00
18504;BME280;9381;54.244;10.074;2022-10-23T18:57:02;100290.72;;;15.60;100.00
18504;BME280;9381;54.244;10.074;2022-10-23T19:02:03;100301.06;;;15.58;100.00
18504;BME280;9381;54.244;10.074;2022-10-23T19:07:03;100303.81;;;15.63;100.00
18504;BME280;9381;54.244;10.074;2022-10-23T19:12:03;100269.50;;;15.67;100.00
18504;BME280;9381;54.244;10.074;2022-10-23T19:17:08;100254.91;;;15.51;100.00
18504;BME280;9381;54.244;10.074;2022-10-23T19:22:11;100232.91;;;15.58;100.00
18504;BME280;9381;54.244;10.074;2022-10-23T19:27:13;100231.75;;;15.49;100.00
18504;BME280;9381;54.244;10.074;2022-10-23T19:32:14;100225.19;;;15.50;100.00
18504;BME280;9381;54.244;10.074;2022-10-23T19:37:14;100260.16;;;15.58;100.00
18504;BME280;9381;54.244;10.074;2022-10-23T19:42:15;100268.38;;;15.63;100.00
18504;BME280;9381;54.244;10.074;2022-10-23T19:47:15;100267.25;;;15.59;100.00
18504;BME280;9381;54.244;10.074;2022-10-23T19:52:17;100261.88;;;15.69;100.00
18504;BME280;9381;54.244;10.074;2022-10-23T19:57:17;100247.63;;;15.62;100.00
18504;BME280;9381;54.244;10.074;2022-10-23T20:02:19;100236.78;;;15.67;100.00
18504;BME280;9381;54.244;10.074;2022-10-23T20:07:19;100235.31;;;15.54;100.00
18504;BME280;9381;54.244;10.074;2022-10-23T20:12:20;100214.38;;;15.60;100.00
18504;BME280;9381;54.244;10.074;2022-10-23T20:17:21;100221.47;;;15.61;100.00
18504;BME280;9381;54.244;10.074;2022-10-23T20:22:21;100218.19;;;15.59;100.00
18504;BME280;9381;54.244;10.074;2022-10-23T20:27:22;100228.31;;;15.63;100.00
18504;BME280;9381;54.244;10.074;2022-10-23T20:32:23;100229.66;;;15.61;100.00
18504;BME280;9381;54.244;10.074;2022-10-23T20:37:23;100203.00;;;15.73;100.00
18504;BME280;9381;54.244;10.074;2022-10-23T20:42:23;100199.78;;;15.81;100.00
18504;BME280;9381;54.244;10.074;2022-10-23T20:47:24;100187.00;;;15.81;100.00
18504;BME280;9381;54.244;10.074;2022-10-23T20:52:24;100167.13;;;15.91;100.00
18504;BME280;9381;54.244;10.074;2022-10-23T20:57:26;100152.69;;;15.90;100.00
18504;BME280;9381;54.244;10.074;2022-10-23T21:02:26;100160.03;;;15.90;100.00
18504;BME280;9381;54.244;10.074;2022-10-23T21:07:27;100168.25;;;15.95;100.00
18504;BME280;9381;54.244;10.074;2022-10-23T21:12:27;100168.75;;;15.92;100.00
18504;BME280;9381;54.244;10.074;2022-10-23T21:17:30;100154.00;;;15.83;100.00
18504;BME280;9381;54.244;10.074;2022-10-23T21:22:34;100136.03;;;15.87;100.00
18504;BME280;9381;54.244;10.074;2022-10-23T21:27:34;100154.88;;;15.93;100.00
18504;BME280;9381;54.244;10.074;2022-10-23T21:32:35;100150.47;;;15.87;100.00
18504;BME280;9381;54.244;10.074;2022-10-23T21:37:35;100149.66;;;15.92;100.00
18504;BME280;9381;54.244;10.074;2022-10-23T21:42:35;100122.97;;;15.94;100.00
18504;BME280;9381;54.244;10.074;2022-10-23T21:47:36;100122.94;;;15.89;100.00
18504;BME280;9381;54.244;10.074;2022-10-23T21:52:36;100132.78;;;15.95;100.00
18504;BME280;9381;54.244;10.074;2022-10-23T21:57:36;100126.25;;;15.96;100.00
18504;BME280;9381;54.244;10.074;2022-10-23T22:02:37;100127.06;;;15.96;100.00
18504;BME280;9381;54.244;10.074;2022-10-23T22:07:37;100126.25;;;15.96;100.00
18504;BME280;9381;54.244;10.074;2022-10-23T22:12:37;100119.66;;;15.87;100.00
18504;BME280;9381;54.244;10.074;2022-10-23T22:17:38;100098.44;;;15.94;100.00
18504;BME280;9381;54.244;10.074;2022-10-23T22:22:38;100098.94;;;15.86;100.00
18504;BME280;9381;54.244;10.074;2022-10-23T22:27:39;100097.56;;;15.83;100.00
18504;BME280;9381;54.244;10.074;2022-10-23T22:32:39;100091.25;;;15.78;100.00
18504;BME280;9381;54.244;10.074;2022-10-23T22:37:39;100071.09;;;15.79;100.00
18504;BME280;9381;54.244;10.074;2022-10-23T22:42:39;100065.63;;;15.79;100.00
18504;BME280;9381;54.244;10.074;2022-10-23T22:47:40;100070.53;;;15.82;100.00
18504;BME280;9381;54.244;10.074;2022-10-23T22:52:40;100074.91;;;15.78;100.00
18504;BME280;9381;54.244;10.074;2022-10-23T22:57:40;100066.38;;;15.69;100.00
18504;BME280;9381;54.244;10.074;2022-10-23T23:02:41;100068.31;;;15.74;100.00
18504;BME280;9381;54.244;10.074;2022-10-23T23:07:41;100082.00;;;15.79;100.00
18504;BME280;9381;54.244;10.074;2022-10-23T23:12:41;100081.16;;;15.78;100.00
18504;BME280;9381;54.244;10.074;2022-10-23T23:17:42;100087.69;;;15.77;100.00
18504;BME280;9381;54.244;10.074;2022-10-23T23:22:42;100090.13;;;15.74;100.00
18504;BME280;9381;54.244;10.074;2022-10-23T23:27:43;100082.78;;;15.74;100.00
18504;BME280;9381;54.244;10.074;2022-10-23T23:32:46;100083.31;;;15.71;100.00
18504;BME280;9381;54.244;10.074;2022-10-23T23:37:46;100066.09;;;15.61;100.00
18504;BME280;9381;54.244;10.074;2022-10-23T23:42:47;100062.03;;;15.63;100.00
18504;BME280;9381;54.244;10.074;2022-10-23T23:47:47;100056.53;;;15.53;100.00
18504;BME280;9381;54.244;10.074;2022-10-23T23:52:48;100060.03;;;15.49;100.00
18504;BME280;9381;54.244;10.074;2022-10-23T23:57:48;100060.00;;;15.44;100.00
